Time;durP1;ratioP1;P1;durP2;ratioP2;P2;SDS_P1;SDS_P2;PMS_P1;PMS_P2;Temp;Humidity;BMP_temperature;BMP_pressure;BME280_temperature;BME280_humidity;BME280_pressure;Samples;Min_cycle;Max_cycle;Signal;HPM_P1;HPM_P2
2023/04/05 00:01:39;;;;;;;1.80;1.70;;;;;;;3.42;77.84;99257.61;107460;1254;73771;-37
2023/04/05 00:04:07;;;;;;;2.10;1.90;;;;;;;3.43;78.00;99255.81;107504;1254;61429;-37
2023/04/05 00:06:38;;;;;;;2.40;2.20;;;;;;;3.41;78.14;99255.46;107431;1254;61547;-37
2023/04/05 00:09:07;;;;;;;2.60;2.40;;;;;;;3.39;78.14;99255.84;107424;1254;74329;-37
2023/04/05 00:11:36;;;;;;;1.90;1.80;;;;;;;3.37;77.91;99251.72;107482;1254;67910;-37
2023/04/05 00:14:04;;;;;;;1.80;1.60;;;;;;;3.39;78.03;99256.46;107468;1254;72057;-37
2023/04/05 00:16:35;;;;;;;2.10;2.00;;;;;;;3.42;78.01;99256.33;107469;1254;59275;-37
2023/04/05 00:19:04;;;;;;;1.90;1.80;;;;;;;3.43;77.99;99253.27;107491;1254;60403;-37
2023/04/05 00:21:34;;;;;;;2.40;2.20;;;;;;;3.41;78.20;99256.26;107491;1254;72985;-37
2023/04/05 00:24:04;;;;;;;2.40;2.20;;;;;;;3.41;78.13;99248.00;107522;1254;68676;-37
2023/04/05 00:26:32;;;;;;;1.40;1.30;;;;;;;3.40;78.35;99241.05;107473;1254;72662;-37
2023/04/05 00:29:01;;;;;;;2.60;2.40;;;;;;;3.48;77.88;99233.15;107327;1254;59806;-37
2023/04/05 00:31:29;;;;;;;1.90;1.80;;;;;;;3.51;77.60;99238.55;107406;1254;61572;-37
2023/04/05 00:33:58;;;;;;;2.70;2.50;;;;;;;3.48;77.63;99239.36;107525;1254;73919;-37
2023/04/05 00:36:29;;;;;;;2.30;2.10;;;;;;;3.47;77.83;99237.09;107473;1254;67725;-37
2023/04/05 00:38:57;;;;;;;1.90;1.80;;;;;;;3.47;77.68;99240.60;107396;1254;73510;-37
2023/04/05 00:41:25;;;;;;;2.00;1.50;;;;;;;3.43;77.69;99243.80;105136;1254;1003628;-37
2023/04/05 00:43:55;;;;;;;1.90;1.80;;;;;;;3.49;77.78;99242.98;107476;1254;61453;-37
2023/04/05 00:46:33;;;;;;;2.30;2.00;;;;;;;3.56;77.86;99241.76;107345;1254;73960;-38
2023/04/05 00:49:03;;;;;;;1.80;1.70;;;;;;;3.57;77.46;99236.85;107491;1254;67964;-38
2023/04/05 00:51:32;;;;;;;2.00;1.90;;;;;;;3.56;77.61;99235.92;107484;1254;73671;-37
2023/04/05 00:54:01;;;;;;;3.50;2.10;;;;;;;3.52;77.46;99231.02;107266;1254;60500;-37
2023/04/05 00:56:30;;;;;;;1.60;1.50;;;;;;;3.50;77.61;99235.44;107451;1254;61539;-37
2023/04/05 00:59:03;;;;;;;1.80;1.70;;;;;;;3.60;77.59;99232.04;107468;1254;74083;-37
2023/04/05 01:01:33;;;;;;;2.00;1.80;;;;;;;3.62;77.40;99226.55;107454;1254;69123;-37
2023/04/05 01:04:04;;;;;;;1.30;1.20;;;;;;;3.60;77.29;99221.15;107413;1254;73927;-37
2023/04/05 01:06:58;;;;;;;3.30;2.30;;;;;;;3.52;77.13;99217.61;107461;1254;59621;-37
2023/04/05 01:09:40;;;;;;;1.90;1.80;;;;;;;3.45;77.55;99211.56;107475;1254;61578;-37
2023/04/05 01:12:09;;;;;;;1.70;1.60;;;;;;;3.41;77.60;99206.95;107484;1254;73027;-37
2023/04/05 01:14:45;;;;;;;2.10;1.90;;;;;;;3.42;77.43;99201.18;107423;1254;69179;-37
2023/04/05 01:17:15;;;;;;;2.10;1.90;;;;;;;3.42;77.70;99198.85;107490;1254;73947;-37
2023/04/05 01:19:47;;;;;;;2.20;2.00;;;;;;;3.39;77.85;99200.65;107486;1254;60421;-37
2023/04/05 01:22:36;;;;;;;2.00;1.90;;;;;;;3.38;77.95;99197.71;107360;1254;60387;-37
2023/04/05 01:25:09;;;;;;;;;;;;;;;3.36;77.68;99189.27;107473;1254;73477;-37
2023/04/05 01:27:56;;;;;;;2.50;1.80;;;;;;;3.34;77.85;99183.34;107475;1254;68136;-37
2023/04/05 01:30:36;;;;;;;3.80;2.00;;;;;;;3.29;77.93;99174.48;107456;1254;73741;-38
2023/04/05 01:33:30;;;;;;;1.60;1.50;;;;;;;3.26;78.07;99175.17;107413;1254;59733;-37
2023/04/05 01:36:15;;;;;;;1.90;1.70;;;;;;;3.21;78.32;99167.45;107469;1254;60430;-37
2023/04/05 01:38:45;;;;;;;2.20;1.50;;;;;;;3.15;78.35;99161.05;107418;1254;74301;-37
2023/04/05 01:41:16;;;;;;;1.70;1.60;;;;;;;3.20;78.34;99160.14;107383;1254;68909;-38
2023/04/05 01:43:47;;;;;;;1.60;1.40;;;;;;;3.23;78.18;99161.59;107413;1254;73547;-37
2023/04/05 01:46:16;;;;;;;1.50;1.40;;;;;;;3.20;78.30;99158.60;107441;1254;61292;-37
2023/04/05 01:48:44;;;;;;;1.70;1.60;;;;;;;3.16;78.35;99155.23;107416;1254;61307;-37
2023/04/05 01:51:14;;;;;;;1.60;1.40;;;;;;;3.12;78.57;99157.77;107454;1254;73884;-37
2023/04/05 01:53:42;;;;;;;1.20;1.10;;;;;;;3.14;78.77;99165.78;107370;1254;68932;-37
2023/04/05 01:56:11;;;;;;;1.70;1.60;;;;;;;3.18;78.50;99162.27;107340;1254;73901;-37
2023/04/05 01:58:39;;;;;;;1.40;1.30;;;;;;;3.17;78.58;99161.15;107343;1254;61722;-37
2023/04/05 02:01:08;;;;;;;1.60;1.40;;;;;;;3.15;78.73;99162.66;107410;1254;60560;-37
2023/04/05 02:03:37;;;;;;;1.70;1.60;;;;;;;3.16;78.90;99165.63;107444;1259;73943;-37
2023/04/05 02:06:06;;;;;;;1.00;1.00;;;;;;;3.18;78.65;99163.36;107502;1254;69092;-37
2023/04/05 02:08:37;;;;;;;1.40;1.30;;;;;;;3.27;78.56;99161.63;107438;1254;72709;-37
2023/04/05 02:11:06;;;;;;;1.50;1.40;;;;;;;3.30;78.19;99155.10;107420;1254;61590;-37
2023/04/05 02:13:36;;;;;;;1.80;1.60;;;;;;;3.28;77.95;99152.17;107398;1254;61611;-37
2023/04/05 02:16:06;;;;;;;1.50;1.40;;;;;;;3.26;78.23;99155.04;107486;1255;74117;-37
2023/04/05 02:18:37;;;;;;;1.50;1.40;;;;;;;3.26;78.46;99146.19;107490;1254;69428;-37
2023/04/05 02:21:09;;;;;;;1.80;1.40;;;;;;;3.30;78.10;99143.84;107472;1254;73851;-37
2023/04/05 02:23:38;;;;;;;1.60;1.50;;;;;;;3.33;77.85;99148.54;107434;1257;61536;-37
2023/04/05 02:26:07;;;;;;;1.40;1.30;;;;;;;3.31;78.08;99145.10;107406;1254;61295;-37
2023/04/05 02:28:37;;;;;;;1.60;1.50;;;;;;;3.28;78.22;99144.29;107503;1254;73390;-37
2023/04/05 02:31:10;;;;;;;1.60;1.50;;;;;;;3.25;78.18;99143.81;107445;1255;68937;-37
2023/04/05 02:33:42;;;;;;;1.50;1.20;;;;;;;3.19;78.49;99137.99;107280;1254;73913;-37
2023/04/05 02:36:12;;;;;;;1.40;1.30;;;;;;;3.23;78.43;99139.00;107305;1258;60804;-37
2023/04/05 02:38:40;;;;;;;1.30;1.20;;;;;;;3.24;78.19;99134.55;107409;1254;60412;-37
2023/04/05 02:41:13;;;;;;;1.60;1.50;;;;;;;3.23;78.39;99135.13;107457;1254;74904;-37
2023/04/05 02:43:41;;;;;;;2.50;1.40;;;;;;;3.21;78.52;99131.46;105942;1254;1003770;-37
2023/04/05 02:46:11;;;;;;;1.50;1.40;;;;;;;3.15;78.18;99133.68;106689;1254;1002841;-37
2023/04/05 02:48:42;;;;;;;1.30;1.20;;;;;;;3.17;78.39;99140.73;107455;1258;61133;-37
2023/04/05 02:51:11;;;;;;;;;;;;;;;3.18;78.19;99144.77;107417;1254;59881;-37
2023/04/05 02:53:43;;;;;;;1.50;1.40;;;;;;;3.08;78.80;99142.50;107453;1254;74008;-37
2023/04/05 02:56:14;;;;;;;1.50;1.40;;;;;;;3.03;79.00;99145.65;107434;1254;67297;-37
2023/04/05 02:58:46;;;;;;;1.90;1.60;;;;;;;3.03;79.15;99146.95;107490;1254;73656;-37
2023/04/05 03:01:19;;;;;;;1.60;1.10;;;;;;;3.03;79.02;99147.26;107374;1254;62061;-37
2023/04/05 03:03:48;;;;;;;1.40;1.30;;;;;;;3.09;78.68;99146.96;107453;1254;60605;-37
2023/04/05 03:06:17;;;;;;;1.40;1.30;;;;;;;3.10;78.58;99146.21;107480;1259;75049;-36
2023/04/05 03:08:49;;;;;;;1.60;1.50;;;;;;;3.05;78.99;99145.27;107474;1254;68145;-37
2023/04/05 03:11:21;;;;;;;1.30;1.20;;;;;;;2.97;78.74;99140.60;107394;1258;73595;-37
2023/04/05 03:13:55;;;;;;;1.80;1.30;;;;;;;3.00;79.02;99150.78;107424;1254;62377;-37
2023/04/05 03:16:50;;;;;;;1.40;1.30;;;;;;;3.07;78.74;99151.33;107458;1255;61514;-37
2023/04/05 03:19:29;;;;;;;1.40;1.30;;;;;;;3.07;78.72;99157.05;107337;1258;74989;-37
2023/04/05 03:22:04;;;;;;;1.40;1.30;;;;;;;3.05;78.81;99163.95;107453;1254;68935;-37
2023/04/05 03:24:35;;;;;;;1.60;1.40;;;;;;;3.06;79.23;99169.57;107524;1254;73580;-37
2023/04/05 03:27:05;;;;;;;2.40;1.20;;;;;;;3.11;78.93;99167.33;107487;1254;62131;-37
2023/04/05 03:29:49;;;;;;;1.40;1.30;;;;;;;3.21;78.66;99166.32;107412;1255;61404;-37
2023/04/05 03:32:17;;;;;;;1.50;1.40;;;;;;;3.21;78.48;99163.48;107419;1255;74239;-37
2023/04/05 03:34:51;;;;;;;1.70;1.40;;;;;;;3.21;78.68;99161.55;107493;1254;69091;-37
2023/04/05 03:37:20;;;;;;;1.80;1.70;;;;;;;3.21;78.54;99158.88;107438;1254;73755;-37
2023/04/05 03:39:58;;;;;;;1.60;1.30;;;;;;;3.20;78.24;99155.92;107399;1256;62529;-37
2023/04/05 03:42:28;;;;;;;1.30;1.20;;;;;;;3.22;78.18;99150.91;107445;1259;61030;-37
2023/04/05 03:44:58;;;;;;;2.70;1.20;;;;;;;3.27;78.19;99148.99;107433;1254;75016;-37
2023/04/05 03:47:33;;;;;;;1.50;1.30;;;;;;;3.24;77.89;99147.65;107431;1254;69265;-37
2023/04/05 03:50:03;;;;;;;1.50;1.00;;;;;;;3.22;78.17;99145.15;107439;1254;73672;-37
2023/04/05 03:52:32;;;;;;;0.80;0.80;;;;;;;3.20;78.25;99149.12;107555;1254;60540;-37
2023/04/05 03:55:01;;;;;;;1.00;1.00;;;;;;;3.15;78.18;99143.08;107458;1256;61244;-37
2023/04/05 03:57:31;;;;;;;2.20;0.80;;;;;;;3.17;77.98;99143.55;105906;1254;1003765;-37
2023/04/05 04:00:16;;;;;;;2.90;1.10;;;;;;;3.17;77.87;99137.23;107442;1254;69085;-37
2023/04/05 04:03:05;;;;;;;1.50;1.20;;;;;;;3.14;78.03;99138.69;107419;1254;72795;-37
2023/04/05 04:05:37;;;;;;;1.00;1.00;;;;;;;3.09;78.19;99137.02;107433;1254;60636;-37
2023/04/05 04:08:08;;;;;;;1.00;0.90;;;;;;;3.06;78.27;99135.82;107455;1254;60372;-37
2023/04/05 04:10:38;;;;;;;1.00;0.90;;;;;;;3.11;78.20;99141.36;107421;1254;75226;-37
2023/04/05 04:13:18;;;;;;;0.80;0.80;;;;;;;3.16;78.28;99142.05;107317;1254;68754;-37
2023/04/05 04:15:53;;;;;;;0.90;0.90;;;;;;;3.15;78.15;99143.00;107322;1254;73556;-37
2023/04/05 04:18:44;;;;;;;1.20;1.10;;;;;;;3.14;78.20;99138.62;107385;1255;60452;-37
2023/04/05 04:21:50;;;;;;;1.20;1.10;;;;;;;3.12;78.49;99135.69;107198;1257;60680;-37
2023/04/05 04:24:39;;;;;;;1.00;0.90;;;;;;;3.11;78.56;99140.02;107328;1254;75083;-37
2023/04/05 04:27:19;;;;;;;1.20;0.90;;;;;;;3.20;78.09;99143.83;107477;1254;68945;-37
2023/04/05 04:30:14;;;;;;;1.30;1.20;;;;;;;3.24;78.10;99137.36;107408;1254;72799;-37
2023/04/05 04:33:21;;;;;;;1.30;1.20;;;;;;;3.25;78.20;99135.02;107283;1254;60577;-37
2023/04/05 04:36:12;;;;;;;1.50;1.30;;;;;;;3.23;78.07;99131.13;107454;1255;61563;-37
2023/04/05 04:39:05;;;;;;;0.80;0.80;;;;;;;3.19;78.09;99133.23;107317;1254;73867;-37
2023/04/05 04:42:10;;;;;;;0.90;0.90;;;;;;;3.23;77.84;99129.02;106863;1262;68925;-37
2023/04/05 04:45:09;;;;;;;1.20;1.00;;;;;;;3.19;77.91;99124.38;107283;1254;73349;-37
2023/04/05 04:47:48;;;;;;;1.20;1.10;;;;;;;3.19;78.07;99131.19;107449;1254;60407;-37
2023/04/05 04:50:33;;;;;;;1.30;1.10;;;;;;;3.17;78.17;99134.20;107483;1254;60976;-37
2023/04/05 04:53:03;;;;;;;0.90;0.80;;;;;;;3.12;78.31;99137.73;107415;1254;75104;-37
2023/04/05 04:55:35;;;;;;;1.10;1.00;;;;;;;3.16;78.27;99139.76;107499;1254;68924;-37
2023/04/05 04:58:11;;;;;;;0.90;0.90;;;;;;;3.18;78.08;99138.62;107497;1254;71502;-37
2023/04/05 05:00:42;;;;;;;1.10;1.00;;;;;;;3.17;78.11;99144.10;107460;1254;60521;-37
2023/04/05 05:03:13;;;;;;;1.20;1.10;;;;;;;3.15;78.18;99138.95;107401;1254;61190;-37
2023/04/05 05:05:43;;;;;;;1.10;0.80;;;;;;;3.13;78.54;99135.56;107467;1257;73647;-37
2023/04/05 05:08:12;;;;;;;0.60;0.60;;;;;;;3.16;78.18;99137.45;107459;1254;69185;-37
2023/04/05 05:10:42;;;;;;;1.20;1.10;;;;;;;3.19;78.11;99136.15;107273;1254;73818;-37
2023/04/05 05:13:10;;;;;;;1.80;1.20;;;;;;;3.23;78.59;99136.15;107457;1254;61370;-37
2023/04/05 05:15:40;;;;;;;1.40;1.30;;;;;;;3.23;78.30;99130.91;107497;1258;61490;-37
2023/04/05 05:18:11;;;;;;;1.40;1.30;;;;;;;3.22;78.47;99127.45;107489;1254;75018;-37
2023/04/05 05:20:40;;;;;;;1.00;0.90;;;;;;;3.19;78.38;99130.09;107464;1254;68818;-37
2023/04/05 05:23:09;;;;;;;1.00;0.90;;;;;;;3.22;78.35;99127.17;107450;1254;73975;-37
2023/04/05 05:25:38;;;;;;;1.10;1.10;;;;;;;3.23;78.24;99120.73;107478;1254;61615;-37
2023/04/05 05:28:06;;;;;;;2.60;1.20;;;;;;;3.23;78.42;99118.71;107529;1254;61482;-37
2023/04/05 05:30:37;;;;;;;1.40;1.30;;;;;;;3.21;78.39;99115.48;107465;1254;74805;-37
2023/04/05 05:33:07;;;;;;;1.40;1.30;;;;;;;3.19;78.47;99112.94;107499;1254;69083;-37
2023/04/05 05:35:36;;;;;;;1.40;1.10;;;;;;;3.18;78.16;99107.87;107467;1254;73563;-37
2023/04/05 05:38:05;;;;;;;1.50;1.10;;;;;;;3.19;78.32;99108.15;107422;1254;62000;-37
2023/04/05 05:40:37;;;;;;;1.40;1.20;;;;;;;3.12;78.12;99099.32;107485;1254;60669;-37
2023/04/05 05:43:09;;;;;;;1.20;1.10;;;;;;;3.08;78.48;99104.91;107432;1254;75246;-37
2023/04/05 05:45:37;;;;;;;2.00;1.10;;;;;;;3.04;78.74;99111.84;107326;1254;66622;-37
2023/04/05 05:48:08;;;;;;;1.10;0.90;;;;;;;3.06;78.63;99114.61;107393;1254;72624;-37
2023/04/05 05:50:38;;;;;;;1.30;1.20;;;;;;;3.13;78.60;99117.27;107378;1254;61632;-37
2023/04/05 05:53:08;;;;;;;1.10;1.00;;;;;;;3.15;78.84;99117.30;107495;1254;60347;-37
2023/04/05 05:55:36;;;;;;;0.90;0.90;;;;;;;3.13;78.62;99113.92;107416;1254;75052;-38
2023/04/05 05:58:06;;;;;;;1.60;1.10;;;;;;;3.09;78.48;99115.88;107467;1254;68978;-37
2023/04/05 06:00:35;;;;;;;1.10;1.00;;;;;;;3.01;78.88;99117.06;107520;1254;73925;-37
2023/04/05 06:03:13;;;;;;;1.40;1.00;;;;;;;3.05;79.01;99115.88;107338;1254;62169;-37
2023/04/05 06:05:52;;;;;;;1.20;0.90;;;;;;;3.09;78.96;99118.02;107426;1254;61573;-37
2023/04/05 06:08:22;;;;;;;0.80;0.80;;;;;;;3.09;78.95;99126.11;107493;1256;74089;-38
2023/04/05 06:10:51;;;;;;;1.20;1.10;;;;;;;3.07;79.07;99122.23;107517;1258;69162;-37
2023/04/05 06:13:21;;;;;;;1.10;0.80;;;;;;;3.04;78.80;99113.39;107488;1254;73521;-37
2023/04/05 06:15:51;;;;;;;1.40;0.90;;;;;;;3.04;78.86;99113.38;107499;1254;62067;-37
2023/04/05 06:18:21;;;;;;;1.00;0.90;;;;;;;3.07;78.95;99116.03;107495;1254;61528;-37
2023/04/05 06:20:49;;;;;;;1.20;1.10;;;;;;;3.05;79.06;99117.48;107506;1254;75472;-36
2023/04/05 06:23:19;;;;;;;1.40;1.10;;;;;;;3.01;79.17;99116.69;107494;1254;69133;-36
2023/04/05 06:25:49;;;;;;;1.40;0.90;;;;;;;2.96;79.24;99114.54;107480;1254;73873;-36
2023/04/05 06:28:17;;;;;;;1.30;1.10;;;;;;;2.96;79.45;99115.02;107449;1254;62175;-36
2023/04/05 06:30:45;;;;;;;1.70;1.20;;;;;;;3.02;79.37;99120.66;107421;1255;61314;-36
2023/04/05 06:33:14;;;;;;;3.90;1.10;;;;;;;3.07;79.58;99117.86;107507;1254;73995;-36
2023/04/05 06:35:43;;;;;;;1.60;1.30;;;;;;;3.10;79.51;99117.44;107356;1254;68764;-36
2023/04/05 06:38:11;;;;;;;1.10;1.00;;;;;;;3.10;79.51;99120.38;107473;1256;73933;-36
2023/04/05 06:40:40;;;;;;;0.80;0.80;;;;;;;3.11;79.39;99114.64;107455;1254;62060;-36
2023/04/05 06:43:11;;;;;;;1.00;0.90;;;;;;;3.18;79.27;99111.84;107492;1254;60023;-36
2023/04/05 06:45:41;;;;;;;1.20;1.10;;;;;;;3.21;79.17;99111.73;107484;1254;74085;-37
2023/04/05 06:48:10;;;;;;;1.30;1.10;;;;;;;3.22;79.26;99107.95;107516;1254;67941;-36
2023/04/05 06:50:40;;;;;;;1.00;1.00;;;;;;;3.21;79.40;99105.15;107467;1254;73547;-36
2023/04/05 06:53:10;;;;;;;1.20;1.10;;;;;;;3.19;79.37;99104.98;107489;1254;60849;-36
2023/04/05 06:55:41;;;;;;;;;;;;;;;3.23;79.32;99094.94;107492;1254;59714;-36
2023/04/05 06:58:09;;;;;;;;;;;;;;;3.22;79.26;99093.55;107524;1254;76121;-37
2023/04/05 07:00:38;;;;;;;1.20;1.10;;;;;;;3.12;79.90;99085.72;107478;1254;69015;-36
2023/04/05 07:03:25;;;;;;;1.20;1.10;;;;;;;3.09;79.96;99085.50;107454;1254;73912;-36
2023/04/05 07:05:55;;;;;;;1.40;1.10;;;;;;;3.08;80.13;99086.13;107518;1254;62342;-36
2023/04/05 07:08:26;;;;;;;1.20;1.00;;;;;;;3.13;79.94;99084.46;107442;1254;60845;-36
2023/04/05 07:10:56;;;;;;;1.30;1.20;;;;;;;3.22;79.83;99091.58;107408;1254;74225;-36
2023/04/05 07:13:25;;;;;;;1.40;1.10;;;;;;;3.22;79.89;99092.10;107322;1254;69170;-36
2023/04/05 07:16:00;;;;;;;1.40;1.10;;;;;;;3.22;80.14;99092.98;107315;1254;73646;-36
2023/04/05 07:18:30;;;;;;;1.00;1.00;;;;;;;3.24;80.23;99096.58;107359;1254;62348;-36
2023/04/05 07:20:59;;;;;;;1.40;1.20;;;;;;;3.30;79.74;99099.00;107431;1254;61111;-36
2023/04/05 07:23:33;;;;;;;1.30;1.20;;;;;;;3.34;79.62;99099.77;107472;1254;73793;-37
2023/04/05 07:26:06;;;;;;;1.10;1.00;;;;;;;3.32;79.51;99100.89;107501;1254;69346;-36
2023/04/05 07:28:35;;;;;;;1.80;1.30;;;;;;;3.29;79.83;99098.84;107497;1254;73875;-36
2023/04/05 07:31:05;;;;;;;2.10;1.00;;;;;;;3.28;79.99;99096.44;107468;1259;62310;-36
2023/04/05 07:33:35;;;;;;;2.00;1.00;;;;;;;3.32;79.86;99092.72;107546;1257;61480;-36
2023/04/05 07:36:04;;;;;;;1.20;1.10;;;;;;;3.37;79.74;99084.58;107443;1254;74755;-37
2023/04/05 07:38:33;;;;;;;1.50;1.40;;;;;;;3.38;79.72;99082.31;107494;1254;69579;-36
2023/04/05 07:41:02;;;;;;;1.30;1.20;;;;;;;3.35;79.74;99083.79;107455;1255;73664;-36
2023/04/05 07:43:31;;;;;;;1.20;1.10;;;;;;;3.32;79.81;99087.65;107471;1254;60806;-37
2023/04/05 07:46:01;;;;;;;1.10;1.00;;;;;;;3.32;79.82;99092.15;107439;1254;60538;-36
2023/04/05 07:48:29;;;;;;;1.40;1.20;;;;;;;3.35;79.75;99092.59;107609;1254;74679;-37
2023/04/05 07:51:09;;;;;;;1.60;1.20;;;;;;;3.34;80.04;99091.33;107449;1254;68783;-36
2023/04/05 07:53:37;;;;;;;3.30;1.30;;;;;;;3.30;80.08;99092.19;107379;1254;74101;-36
2023/04/05 07:56:07;;;;;;;1.50;1.30;;;;;;;3.28;80.30;99092.77;107480;1255;62695;-36
2023/04/05 07:58:40;;;;;;;1.70;1.30;;;;;;;3.31;80.20;99092.65;107483;1254;59676;-37
2023/04/05 08:01:09;;;;;;;1.40;1.20;;;;;;;3.37;80.12;99088.58;107512;1254;73992;-37
2023/04/05 08:03:38;;;;;;;;;;;;;;;3.38;80.15;99089.31;107519;1254;68014;-37
2023/04/05 08:06:10;;;;;;;1.10;0.90;;;;;;;3.29;80.22;99090.52;107512;1254;74010;-37
2023/04/05 08:08:39;;;;;;;1.60;1.50;;;;;;;3.23;80.65;99090.88;107476;1254;60533;-37
2023/04/05 08:11:10;;;;;;;1.40;1.30;;;;;;;3.26;80.41;99091.23;107470;1254;61524;-37
2023/04/05 08:13:41;;;;;;;1.30;1.20;;;;;;;3.32;80.36;99088.43;107507;1254;73791;-37
2023/04/05 08:16:10;;;;;;;2.40;1.40;;;;;;;3.33;80.39;99086.80;107464;1255;69132;-37
2023/04/05 08:18:41;;;;;;;1.40;1.20;;;;;;;3.26;80.42;99077.45;107465;1254;73633;-37
2023/04/05 08:21:10;;;;;;;1.40;1.20;;;;;;;3.31;80.71;99087.98;104463;1257;1003741;-37
2023/04/05 08:23:40;;;;;;;1.40;1.20;;;;;;;3.33;80.72;99083.93;107468;1254;61371;-37
2023/04/05 08:26:08;;;;;;;1.30;1.10;;;;;;;3.40;80.55;99084.70;107521;1254;74163;-37
2023/04/05 08:28:37;;;;;;;1.30;1.20;;;;;;;3.43;80.44;99089.64;107497;1255;69162;-37
2023/04/05 08:31:06;;;;;;;2.20;1.50;;;;;;;3.42;80.43;99089.33;107442;1254;73560;-37
2023/04/05 08:33:36;;;;;;;;;;;;;;;3.42;80.78;99090.54;107461;1254;60648;-37
2023/04/05 08:36:07;;;;;;;1.40;1.30;;;;;;;3.40;80.76;99086.77;107343;1254;60949;-37
2023/04/05 08:38:35;;;;;;;1.10;1.00;;;;;;;3.43;80.46;99090.43;107482;1256;73019;-37
2023/04/05 08:41:26;;;;;;;2.40;1.80;;;;;;;3.48;80.72;99089.63;107413;1257;68960;-37
2023/04/05 08:44:01;;;;;;;2.40;1.40;;;;;;;3.50;80.69;99094.95;107346;1254;75152;-37
2023/04/05 08:46:31;;;;;;;1.40;1.30;;;;;;;3.50;80.66;99101.08;107379;1254;60734;-37
2023/04/05 08:49:06;;;;;;;1.40;1.10;;;;;;;3.51;80.78;99096.42;107520;1257;61327;-37
2023/04/05 08:51:40;;;;;;;1.20;1.10;;;;;;;3.58;80.44;99089.38;107505;1259;75049;-37
2023/04/05 08:54:09;;;;;;;1.30;1.20;;;;;;;3.63;80.43;99086.43;107471;1258;69161;-37
2023/04/05 08:56:38;;;;;;;2.10;1.10;;;;;;;3.66;80.85;99089.23;107314;1254;73872;-37
2023/04/05 08:59:11;;;;;;;1.20;1.10;;;;;;;3.68;80.79;99092.16;107445;1256;60647;-37
2023/04/05 09:01:43;;;;;;;1.30;1.20;;;;;;;3.75;80.76;99088.11;107357;1257;60442;-37
2023/04/05 09:04:20;;;;;;;1.70;1.30;;;;;;;3.87;80.52;99089.30;107493;1254;73240;-37
2023/04/05 09:06:50;;;;;;;1.60;1.40;;;;;;;3.92;80.27;99089.98;107371;1257;69147;-37
2023/04/05 09:09:20;;;;;;;1.30;1.20;;;;;;;3.92;80.26;99085.10;107474;1255;73859;-37
2023/04/05 09:11:49;;;;;;;1.30;1.20;;;;;;;3.92;80.35;99085.27;107422;1255;60240;-37
2023/04/05 09:14:18;;;;;;;1.20;1.10;;;;;;;3.97;80.13;99080.16;107546;1255;61489;-37
2023/04/05 09:16:52;;;;;;;1.90;1.10;;;;;;;4.08;79.89;99081.38;107419;1255;74805;-37
2023/04/05 09:19:21;;;;;;;1.40;1.30;;;;;;;4.08;80.20;99076.48;107493;1254;69452;-37
2023/04/05 09:22:00;;;;;;;1.70;1.50;;;;;;;4.07;80.18;99074.20;107522;1254;73684;-37
2023/04/05 09:24:36;;;;;;;1.40;1.30;;;;;;;4.08;80.30;99074.24;107516;1254;60781;-38
2023/04/05 09:27:11;;;;;;;1.20;1.10;;;;;;;4.13;80.43;99069.02;107555;1254;61451;-37
2023/04/05 09:29:46;;;;;;;1.50;1.40;;;;;;;4.21;80.19;99068.56;107518;1255;75072;-37
2023/04/05 09:32:17;;;;;;;2.60;1.40;;;;;;;4.27;80.50;99066.64;107511;1257;68999;-36
2023/04/05 09:34:46;;;;;;;1.90;1.50;;;;;;;4.32;80.55;99059.31;107565;1254;72465;-36
2023/04/05 09:37:20;;;;;;;1.80;1.60;;;;;;;4.36;80.70;99061.63;107414;1257;61994;-36
2023/04/05 09:39:50;;;;;;;2.50;2.30;;;;;;;4.46;80.65;99063.98;107495;1258;60297;-36
2023/04/05 09:42:21;;;;;;;2.00;1.80;;;;;;;4.51;80.18;99065.20;106774;1255;1002972;-36
2023/04/05 09:44:57;;;;;;;2.00;1.70;;;;;;;4.53;80.42;99067.86;107490;1258;69041;-37
2023/04/05 09:47:31;;;;;;;2.00;1.70;;;;;;;4.58;80.62;99063.46;107455;1255;73854;-36
2023/04/05 09:50:14;;;;;;;2.00;1.70;;;;;;;4.69;80.30;99061.02;107421;1257;62059;-36
2023/04/05 09:52:43;;;;;;;2.20;1.80;;;;;;;4.77;80.18;99057.34;107375;1254;61569;-36
2023/04/05 09:55:13;;;;;;;2.20;2.00;;;;;;;4.84;80.47;99056.27;107343;1256;73605;-36
2023/04/05 09:57:44;;;;;;;2.20;2.00;;;;;;;4.90;79.99;99049.98;107367;1257;68962;-36
2023/04/05 10:00:19;;;;;;;1.80;1.60;;;;;;;4.93;79.92;99048.85;107467;1257;73773;-36
2023/04/05 10:02:52;;;;;;;2.10;1.90;;;;;;;5.01;79.68;99048.59;107483;1254;61624;-36
2023/04/05 10:05:28;;;;;;;2.10;1.90;;;;;;;5.05;79.23;99042.39;107531;1256;60331;-36
2023/04/05 10:07:56;;;;;;;2.30;2.10;;;;;;;5.03;78.88;99058.20;107407;1254;73617;-36
2023/04/05 10:10:26;;;;;;;;;;;;;;;4.98;78.98;99065.63;107744;1250;68334;-36
2023/04/05 10:12:54;;;;;;;2.40;1.90;;;;;;;4.95;79.10;99063.50;107694;1250;73870;-36
2023/04/05 10:15:23;;;;;;;2.20;2.00;;;;;;;4.96;79.00;99065.10;107670;1254;61785;-36
2023/04/05 10:18:02;;;;;;;2.30;2.10;;;;;;;4.97;79.18;99057.35;107713;1250;61531;-36
2023/04/05 10:20:31;;;;;;;2.50;2.30;;;;;;;4.95;79.58;99053.23;107739;1250;74992;-36
2023/04/05 10:23:08;;;;;;;2.90;2.00;;;;;;;4.95;79.88;99055.62;107500;1250;227453;-37
2023/04/05 10:27:00;;;;;;;2.30;2.10;;;;;;;5.06;79.95;99055.23;104235;1292;600994;-37
2023/04/05 10:29:48;;;;;;;2.50;2.10;;;;;;;5.10;79.81;99055.46;106724;1264;59886;-37
2023/04/05 10:32:30;;;;;;;2.30;2.10;;;;;;;5.12;79.99;99055.00;106743;1267;61228;-37
2023/04/05 10:35:10;;;;;;;2.40;2.10;;;;;;;5.16;79.83;99056.89;106763;1267;73407;-36
2023/04/05 10:38:01;;;;;;;2.20;2.00;;;;;;;5.19;79.21;99054.70;106850;1264;69199;-37
2023/04/05 10:40:31;;;;;;;2.30;2.10;;;;;;;5.21;79.20;99052.92;106663;1263;283160;-37
2023/04/05 10:43:01;;;;;;;2.80;2.60;;;;;;;5.18;79.47;99050.84;106917;1263;61237;-37
2023/04/05 10:45:31;;;;;;;2.30;2.10;;;;;;;5.20;79.70;99050.59;106880;1263;61209;-37
2023/04/05 10:48:17;;;;;;;2.90;2.60;;;;;;;5.23;79.44;99052.14;106885;1262;73423;-36
2023/04/05 10:50:49;;;;;;;2.40;2.20;;;;;;;5.25;79.50;99052.98;106890;1263;68225;-37
2023/04/05 10:53:19;;;;;;;3.00;2.40;;;;;;;5.22;79.74;99052.27;106918;1262;73576;-36
2023/04/05 10:55:48;;;;;;;2.90;2.20;;;;;;;5.20;79.43;99057.64;106891;1263;61574;-36
2023/04/05 10:58:17;;;;;;;2.30;2.10;;;;;;;5.16;79.33;99056.45;106894;1263;61630;-37
2023/04/05 11:00:46;;;;;;;2.30;2.10;;;;;;;5.18;79.25;99056.17;106939;1262;74195;-37
2023/04/05 11:03:43;;;;;;;3.60;2.60;;;;;;;5.17;79.28;99059.23;106917;1262;68912;-37
2023/04/05 11:06:21;;;;;;;2.70;2.50;;;;;;;5.14;79.68;99060.90;106909;1263;73933;-37
2023/04/05 11:08:53;;;;;;;2.60;2.20;;;;;;;5.13;80.07;99064.02;106915;1262;62388;-37
2023/04/05 11:11:22;;;;;;;2.60;2.20;;;;;;;5.24;80.01;99060.71;106898;1265;61527;-37
2023/04/05 11:13:55;;;;;;;3.10;2.70;;;;;;;5.30;79.78;99060.30;106979;1263;74043;-37
2023/04/05 11:16:39;;;;;;;3.00;2.50;;;;;;;5.29;79.94;99064.02;106881;1263;69075;-36
2023/04/05 11:19:09;;;;;;;2.60;2.40;;;;;;;5.30;80.07;99064.89;107394;1258;72422;-36
2023/04/05 11:21:38;;;;;;;2.30;2.10;;;;;;;5.30;80.02;99068.27;107397;1254;62395;-37
2023/04/05 11:24:14;;;;;;;2.50;2.20;;;;;;;5.35;79.79;99074.85;107406;1253;61172;-37
2023/04/05 11:26:46;;;;;;;2.20;2.00;;;;;;;5.37;79.85;99076.14;107495;1253;73102;-37
2023/04/05 11:29:15;;;;;;;3.30;2.60;;;;;;;5.36;79.90;99074.73;107475;1253;69046;-37
2023/04/05 11:32:00;;;;;;;2.30;2.10;;;;;;;5.37;79.94;99074.98;107477;1254;74294;-37
2023/04/05 11:34:30;;;;;;;2.50;2.10;;;;;;;5.44;79.89;99078.82;107455;1253;62003;-37
2023/04/05 11:36:59;;;;;;;2.80;2.50;;;;;;;5.53;79.80;99084.85;107321;1256;61369;-37
2023/04/05 11:39:28;;;;;;;3.10;2.60;;;;;;;5.58;79.63;99078.63;107481;1254;74326;-37
2023/04/05 11:42:01;;;;;;;3.00;2.70;;;;;;;5.58;79.48;99080.22;107458;1255;69139;-37
2023/04/05 11:44:40;;;;;;;2.80;2.50;;;;;;;5.56;79.62;99074.58;107474;1257;73824;-37
2023/04/05 11:47:10;;;;;;;2.80;2.30;;;;;;;5.56;79.63;99075.17;107496;1254;62226;-37
2023/04/05 11:49:39;;;;;;;2.20;2.00;;;;;;;5.60;79.62;99073.33;107517;1256;59843;-37
2023/04/05 11:52:10;;;;;;;2.90;2.60;;;;;;;5.60;79.65;99075.33;107536;1256;74168;-37
2023/04/05 11:54:44;;;;;;;2.90;2.40;;;;;;;5.58;79.78;99069.33;107516;1257;69251;-37
2023/04/05 11:57:19;;;;;;;2.90;2.50;;;;;;;5.56;79.72;99065.34;107516;1257;73261;-37
2023/04/05 11:59:50;;;;;;;3.20;2.30;;;;;;;5.55;79.87;99061.17;107538;1255;62383;-38
2023/04/05 12:02:19;;;;;;;2.80;2.50;;;;;;;5.60;79.78;99059.10;107525;1255;60000;-38